Time;durP1;ratioP1;P1;durP2;ratioP2;P2;SDS_P1;SDS_P2;PMS_P1;PMS_P2;Temp;Humidity;BMP_temperature;BMP_pressure;BME280_temperature;BME280_humidity;BME280_pressure;Samples;Min_cycle;Max_cycle;Signal;HPM_P1;HPM_P2
2021/07/12 00:01:23;;;;;;;66.75;40.78;;;18.30;99.90;;;;;;5072486;28;25066;-61
2021/07/12 00:03:49;;;;;;;65.22;40.20;;;18.30;99.90;;;;;;5073864;28;25070;-61
2021/07/12 00:06:15;;;;;;;64.15;40.78;;;18.40;99.90;;;;;;5065586;28;25139;-61
2021/07/12 00:08:40;;;;;;;72.00;41.85;;;18.40;99.90;;;;;;5065353;28;25079;-60
2021/07/12 00:11:06;;;;;;;66.53;39.75;;;18.40;99.90;;;;;;5048851;28;25087;-62
2021/07/12 00:13:32;;;;;;;71.95;43.78;;;18.40;99.90;;;;;;5068255;28;25138;-61
2021/07/12 00:15:57;;;;;;;73.18;42.50;;;18.50;99.90;;;;;;5045085;28;25070;-63
2021/07/12 00:18:23;;;;;;;80.93;44.97;;;18.50;99.90;;;;;;5070071;28;25067;-61
2021/07/12 00:20:49;;;;;;;77.07;43.03;;;18.50;99.90;;;;;;5063000;28;25061;-62
2021/07/12 00:23:14;;;;;;;71.55;42.67;;;18.40;99.90;;;;;;5059887;28;25072;-61
2021/07/12 00:25:40;;;;;;;78.68;45.42;;;18.40;99.90;;;;;;5065328;28;25086;-61
2021/07/12 00:28:06;;;;;;;80.03;45.45;;;18.50;99.90;;;;;;5055747;28;25072;-60
2021/07/12 00:30:32;;;;;;;80.13;45.88;;;18.40;99.90;;;;;;5058307;28;25075;-61
2021/07/12 00:32:58;;;;;;;73.30;43.75;;;18.40;99.90;;;;;;5070596;28;25143;-60
2021/07/12 00:35:25;;;;;;;81.25;46.83;;;18.40;99.90;;;;;;5070438;28;25069;-60
2021/07/12 00:37:50;;;;;;;73.15;44.15;;;18.40;99.90;;;;;;5056452;28;25172;-61
2021/07/12 00:40:18;;;;;;;69.63;42.70;;;18.30;99.90;;;;;;5060180;28;25086;-61
2021/07/12 00:42:46;;;;;;;67.47;41.08;;;18.40;99.90;;;;;;5069102;28;25063;-61
2021/07/12 00:45:19;;;;;;;76.25;43.30;;;18.40;99.90;;;;;;5069091;28;25078;-60
2021/07/12 00:47:44;;;;;;;74.45;42.38;;;18.40;99.90;;;;;;5060644;28;25097;-60
2021/07/12 00:50:12;;;;;;;77.43;44.08;;;18.40;99.90;;;;;;5070859;28;25103;-61
2021/07/12 00:52:38;;;;;;;73.35;41.70;;;18.40;99.90;;;;;;5067438;28;25075;-60
2021/07/12 00:55:21;;;;;;;71.55;42.67;;;18.50;99.90;;;;;;5068215;28;25049;-62
2021/07/12 00:57:48;;;;;;;72.63;42.63;;;18.40;99.90;;;;;;5067968;28;25083;-60
2021/07/12 01:00:14;;;;;;;66.63;40.83;;;18.40;99.90;;;;;;5070609;28;25066;-61
2021/07/12 01:02:41;;;;;;;74.15;43.08;;;18.40;99.90;;;;;;5065030;28;25057;-61
2021/07/12 01:05:10;;;;;;;70.47;42.30;;;18.30;99.90;;;;;;5049408;28;25074;-63
2021/07/12 01:07:36;;;;;;;70.95;39.35;;;18.40;99.90;;;;;;5063949;28;25144;-61
2021/07/12 01:10:02;;;;;;;68.75;41.33;;;18.50;99.90;;;;;;5061939;28;25070;-63
2021/07/12 01:12:45;;;;;;;69.43;41.05;;;18.50;99.90;;;;;;5070621;28;25067;-61
2021/07/12 01:15:16;;;;;;;68.93;39.53;;;18.60;99.90;;;;;;5067823;28;25069;-61
2021/07/12 01:17:54;;;;;;;64.77;40.20;;;18.50;99.90;;;;;;5060659;28;25048;-61
2021/07/12 01:21:11;;;;;;;66.35;41.20;;;18.30;99.90;;;;;;5061312;28;25118;-61
2021/07/12 01:23:55;;;;;;;72.05;42.50;;;18.30;99.90;;;;;;5054771;28;25074;-60
2021/07/12 01:26:49;;;;;;;71.10;39.50;;;18.30;99.90;;;;;;5066644;28;25066;-62
2021/07/12 01:29:23;;;;;;;71.82;41.75;;;18.40;99.90;;;;;;5064279;28;25055;-62
2021/07/12 01:32:42;;;;;;;66.93;39.47;;;18.40;99.90;;;;;;5065778;28;25127;-61
2021/07/12 01:35:22;;;;;;;65.43;39.33;;;18.50;99.90;;;;;;5005115;28;25087;-61
2021/07/12 01:38:10;;;;;;;72.32;42.83;;;18.50;99.90;;;;;;5050943;28;25061;-62
2021/07/12 01:40:51;;;;;;;72.05;42.45;;;18.50;99.90;;;;;;5064756;28;25137;-61
2021/07/12 01:43:32;;;;;;;72.30;42.13;;;18.50;99.90;;;;;;5062916;28;25086;-61
2021/07/12 01:46:16;;;;;;;65.57;41.20;;;18.50;99.90;;;;;;5057160;28;25075;-61
2021/07/12 01:48:57;;;;;;;69.43;41.63;;;18.40;99.90;;;;;;5059808;28;25055;-61
2021/07/12 01:51:31;;;;;;;67.95;40.25;;;18.50;99.90;;;;;;5064665;28;25168;-62
2021/07/12 01:54:16;;;;;;;70.45;40.88;;;18.50;99.90;;;;;;5062221;28;25070;-61
2021/07/12 01:56:54;;;;;;;71.47;41.35;;;18.40;99.90;;;;;;5047215;28;25005;-61
2021/07/12 01:59:33;;;;;;;67.22;40.72;;;18.30;99.90;;;;;;5043304;28;25138;-61
2021/07/12 02:02:01;;;;;;;71.55;41.40;;;18.40;99.90;;;;;;5066245;28;25145;-60
2021/07/12 02:04:28;;;;;;;66.85;41.05;;;18.30;99.90;;;;;;5068105;28;25055;-60
2021/07/12 02:06:56;;;;;;;63.05;37.17;;;18.40;99.90;;;;;;5064829;28;25051;-61
2021/07/12 02:09:23;;;;;;;63.47;40.35;;;18.50;99.90;;;;;;5067821;28;25066;-60
2021/07/12 02:11:49;;;;;;;65.65;40.47;;;18.60;99.90;;;;;;5065053;28;25099;-61
2021/07/12 02:14:21;;;;;;;67.13;40.88;;;18.60;99.90;;;;;;5071093;28;25165;-60
2021/07/12 02:16:51;;;;;;;60.75;38.30;;;18.50;99.90;;;;;;5052839;28;25100;-60
2021/07/12 02:19:18;;;;;;;68.82;39.88;;;18.40;99.90;;;;;;5061705;28;25138;-61
2021/07/12 02:21:48;;;;;;;68.07;41.90;;;18.50;99.90;;;;;;5066214;28;25164;-60
2021/07/12 02:24:18;;;;;;;66.07;40.50;;;18.40;99.90;;;;;;5075332;22;25058;-65
2021/07/12 02:26:44;;;;;;;62.25;40.72;;;18.40;99.90;;;;;;5054754;28;25071;-65
2021/07/12 02:29:12;;;;;;;66.57;40.80;;;18.50;99.90;;;;;;5034916;28;25109;-64
2021/07/12 02:31:38;;;;;;;64.28;39.70;;;18.50;99.90;;;;;;5050652;28;25074;-66
2021/07/12 02:34:04;;;;;;;63.53;39.13;;;18.60;99.90;;;;;;5056348;28;25096;-65
2021/07/12 02:36:31;;;;;;;58.88;37.47;;;18.60;99.90;;;;;;5023633;28;25056;-67
2021/07/12 02:38:58;;;;;;;59.67;38.72;;;18.60;99.90;;;;;;5034051;28;25059;-66
2021/07/12 02:41:25;;;;;;;63.85;39.17;;;18.60;99.90;;;;;;5044654;28;25073;-65
2021/07/12 02:43:52;;;;;;;63.75;37.80;;;18.50;99.90;;;;;;5044147;28;25070;-66
2021/07/12 02:46:19;;;;;;;67.35;39.08;;;18.50;99.90;;;;;;5043852;28;25144;-65
2021/07/12 02:48:45;;;;;;;65.18;39.92;;;18.50;99.90;;;;;;5035221;28;25065;-65
2021/07/12 02:51:15;;;;;;;63.38;39.17;;;18.50;99.90;;;;;;5039133;28;25076;-65
2021/07/12 02:53:48;;;;;;;62.22;40.70;;;18.50;99.90;;;;;;5046343;28;25056;-66
2021/07/12 02:56:13;;;;;;;;;;;18.50;99.90;;;;;;5041005;28;25052;-65
2021/07/12 02:58:39;;;;;;;66.88;40.40;;;18.40;99.90;;;;;;5053653;28;24056;-66
2021/07/12 03:01:05;;;;;;;64.20;39.60;;;18.50;99.90;;;;;;5046899;28;25079;-65
2021/07/12 03:03:30;;;;;;;65.80;41.53;;;18.60;99.90;;;;;;5045312;28;25137;-65
2021/07/12 03:06:01;;;;;;;68.03;40.72;;;18.50;99.90;;;;;;5049310;28;25117;-65
2021/07/12 03:08:37;;;;;;;65.72;39.92;;;18.50;99.90;;;;;;5045641;28;25057;-65
2021/07/12 03:11:08;;;;;;;63.60;40.65;;;18.50;99.90;;;;;;5047019;28;25136;-65
2021/07/12 03:13:44;;;;;;;62.53;38.63;;;18.50;99.90;;;;;;5039051;28;25083;-66
2021/07/12 03:16:11;;;;;;;63.90;41.10;;;18.50;99.90;;;;;;5036037;28;25069;-66
2021/07/12 03:18:51;;;;;;;66.07;39.15;;;18.60;99.90;;;;;;5040321;28;25062;-67
2021/07/12 03:21:19;;;;;;;69.07;41.05;;;18.60;99.90;;;;;;5044951;28;25057;-66
2021/07/12 03:23:48;;;;;;;58.92;37.75;;;18.60;99.90;;;;;;5039076;28;26206;-65
2021/07/12 03:26:16;;;;;;;66.88;39.22;;;18.50;99.90;;;;;;5044060;28;25071;-66
2021/07/12 03:28:42;;;;;;;58.53;37.55;;;18.50;99.90;;;;;;5032569;28;25067;-66
2021/07/12 03:31:09;;;;;;;62.28;39.25;;;18.50;99.90;;;;;;5047425;28;24793;-65
2021/07/12 03:33:37;;;;;;;63.00;40.22;;;18.60;99.90;;;;;;5047906;28;25106;-69
2021/07/12 03:36:04;;;;;;;60.40;38.80;;;18.50;99.90;;;;;;5047145;28;25050;-66
2021/07/12 03:38:31;;;;;;;60.17;38.78;;;18.40;99.90;;;;;;5025023;28;25106;-67
2021/07/12 03:40:58;;;;;;;61.38;40.33;;;18.40;99.90;;;;;;5046777;28;25071;-65
2021/07/12 03:43:24;;;;;;;58.40;37.38;;;18.40;99.90;;;;;;5039839;28;25049;-65
2021/07/12 03:45:55;;;;;;;58.40;36.10;;;18.50;99.90;;;;;;5033142;28;25062;-65
2021/07/12 03:48:33;;;;;;;57.97;37.20;;;18.50;99.90;;;;;;5042415;28;25066;-65
2021/07/12 03:50:59;;;;;;;59.95;36.95;;;18.50;99.90;;;;;;5034934;28;25062;-64
2021/07/12 03:53:25;;;;;;;59.72;37.53;;;18.50;99.90;;;;;;5036103;28;25066;-67
2021/07/12 03:55:50;;;;;;;49.17;33.88;;;18.50;99.90;;;;;;5033107;28;25103;-65
2021/07/12 03:58:16;;;;;;;61.65;37.22;;;18.40;99.90;;;;;;5031329;28;25061;-65
2021/07/12 04:00:41;;;;;;;57.33;34.95;;;18.40;99.90;;;;;;5027789;28;25152;-65
2021/07/12 04:03:07;;;;;;;48.33;32.58;;;18.50;99.90;;;;;;5042205;28;25089;-67
2021/07/12 04:05:32;;;;;;;56.45;34.47;;;18.60;99.90;;;;;;5038411;28;25104;-67
2021/07/12 04:07:58;;;;;;;50.63;32.65;;;18.50;99.90;;;;;;5033006;28;25103;-66
2021/07/12 04:10:23;;;;;;;44.53;31.20;;;18.50;99.90;;;;;;5045377;28;25069;-66
2021/07/12 04:12:49;;;;;;;46.05;31.17;;;18.40;99.90;;;;;;5041560;28;25085;-64
2021/07/12 04:15:16;;;;;;;45.20;30.30;;;18.40;99.90;;;;;;5045497;28;25065;-66
2021/07/12 04:17:42;;;;;;;49.53;31.70;;;18.40;99.90;;;;;;5036366;28;25084;-66
2021/07/12 04:20:08;;;;;;;43.63;29.52;;;18.50;99.90;;;;;;5043285;28;25115;-65
2021/07/12 04:22:34;;;;;;;40.17;28.95;;;18.50;99.90;;;;;;5046365;28;25116;-66
2021/07/12 04:25:00;;;;;;;45.60;30.30;;;18.60;99.90;;;;;;5043918;28;25042;-66
2021/07/12 04:27:26;;;;;;;45.75;30.30;;;18.50;99.90;;;;;;5030001;28;25065;-65
2021/07/12 04:29:51;;;;;;;48.13;31.98;;;18.50;99.90;;;;;;5044777;28;25071;-65
2021/07/12 04:32:17;;;;;;;45.47;29.38;;;18.60;99.90;;;;;;5036856;28;25138;-64
2021/07/12 04:34:42;;;;;;;46.35;30.02;;;18.60;99.90;;;;;;5049939;28;25062;-66
2021/07/12 04:37:08;;;;;;;43.53;29.67;;;18.60;99.90;;;;;;5039145;28;25091;-66
2021/07/12 04:39:34;;;;;;;39.97;29.80;;;18.50;99.90;;;;;;5044126;28;25079;-66
2021/07/12 04:41:59;;;;;;;38.08;27.38;;;18.50;99.90;;;;;;5041750;28;25144;-67
2021/07/12 04:44:25;;;;;;;44.90;29.25;;;18.50;99.90;;;;;;5038871;28;25135;-66
2021/07/12 04:46:51;;;;;;;42.17;29.50;;;18.60;99.90;;;;;;5037803;28;25098;-66
2021/07/12 04:49:17;;;;;;;39.95;26.50;;;18.50;99.90;;;;;;5037888;28;25099;-66
2021/07/12 04:51:44;;;;;;;39.45;28.73;;;18.40;99.90;;;;;;5043486;28;25072;-66
2021/07/12 04:54:09;;;;;;;39.38;28.23;;;18.40;99.90;;;;;;5030480;28;25068;-65
2021/07/12 04:56:35;;;;;;;39.10;28.48;;;18.30;99.90;;;;;;5034546;28;25059;-66
2021/07/12 04:59:07;;;;;;;38.30;28.58;;;18.30;99.90;;;;;;5034216;28;25066;-65
2021/07/12 05:01:33;;;;;;;36.78;28.08;;;18.40;99.90;;;;;;5025229;28;25073;-66
2021/07/12 05:04:04;;;;;;;42.35;30.15;;;18.40;99.90;;;;;;5047091;28;25077;-65
2021/07/12 05:06:29;;;;;;;39.45;28.73;;;18.40;99.90;;;;;;5043914;28;25135;-66
2021/07/12 05:08:56;;;;;;;45.08;30.08;;;18.50;99.90;;;;;;5036903;28;25061;-65
2021/07/12 05:11:26;;;;;;;40.38;29.48;;;18.40;99.90;;;;;;5034989;28;25129;-65
2021/07/12 05:13:52;;;;;;;44.00;30.58;;;18.50;99.90;;;;;;5040615;28;25078;-65
2021/07/12 05:16:19;;;;;;;45.10;31.52;;;18.30;99.90;;;;;;5037144;28;25065;-66
2021/07/12 05:18:45;;;;;;;49.22;32.70;;;18.40;99.90;;;;;;5028522;28;25064;-66
2021/07/12 05:21:11;;;;;;;43.83;30.77;;;18.30;99.90;;;;;;5028889;28;25054;-66
2021/07/12 05:23:37;;;;;;;47.65;31.40;;;18.40;99.90;;;;;;5041481;28;25065;-66
2021/07/12 05:26:03;;;;;;;45.08;31.73;;;18.40;99.90;;;;;;5044968;28;25045;-66
2021/07/12 05:28:28;;;;;;;45.78;31.75;;;18.50;99.90;;;;;;5041457;28;25071;-65
2021/07/12 05:30:55;;;;;;;45.88;32.55;;;18.50;99.90;;;;;;5042363;28;25106;-66
2021/07/12 05:33:21;;;;;;;45.08;30.75;;;18.50;99.90;;;;;;5049120;28;25143;-66
2021/07/12 05:35:47;;;;;;;45.65;31.60;;;18.50;99.90;;;;;;5043023;28;25077;-66
2021/07/12 05:38:12;;;;;;;41.30;30.67;;;18.60;99.90;;;;;;5045819;28;25103;-67
2021/07/12 05:40:38;;;;;;;41.08;30.00;;;18.70;99.90;;;;;;5039041;28;25066;-66
2021/07/12 05:43:04;;;;;;;40.25;31.02;;;18.80;99.90;;;;;;5044457;28;25110;-66
2021/07/12 05:45:30;;;;;;;46.80;29.73;;;18.90;99.90;;;;;;5041793;28;25116;-64
2021/07/12 05:47:56;;;;;;;40.25;30.08;;;18.90;99.90;;;;;;5035415;28;25063;-66
2021/07/12 05:50:22;;;;;;;41.58;30.60;;;19.00;99.90;;;;;;5046153;28;25099;-65
2021/07/12 05:52:47;;;;;;;39.63;30.40;;;19.10;99.90;;;;;;5035024;28;25071;-67
2021/07/12 05:55:13;;;;;;;41.53;30.30;;;19.10;99.90;;;;;;5029841;28;25138;-66
2021/07/12 05:57:39;;;;;;;40.67;30.50;;;19.20;99.90;;;;;;5044253;28;25083;-67
2021/07/12 06:00:07;;;;;;;42.70;28.90;;;19.30;99.90;;;;;;5035733;28;25159;-66
2021/07/12 06:02:33;;;;;;;40.50;29.33;;;19.30;99.90;;;;;;5021969;28;25145;-65
2021/07/12 06:04:58;;;;;;;38.70;28.58;;;19.40;99.90;;;;;;5042501;28;25059;-66
2021/07/12 06:07:24;;;;;;;36.45;27.92;;;19.50;99.90;;;;;;5045190;28;25089;-66
2021/07/12 06:09:49;;;;;;;35.83;27.67;;;19.60;99.90;;;;;;5042665;28;25098;-66
2021/07/12 06:12:15;;;;;;;33.55;26.38;;;19.60;99.90;;;;;;5047384;28;25095;-67
2021/07/12 06:14:41;;;;;;;34.35;26.63;;;19.80;99.90;;;;;;5047175;28;25069;-67
2021/07/12 06:17:06;;;;;;;32.30;24.83;;;20.00;99.90;;;;;;5041728;28;25062;-66
2021/07/12 06:19:32;;;;;;;32.53;23.95;;;20.10;99.90;;;;;;5044988;28;25075;-66
2021/07/12 06:21:58;;;;;;;28.70;21.80;;;20.10;99.90;;;;;;5042688;28;25160;-66
2021/07/12 06:24:23;;;;;;;33.42;23.25;;;20.40;99.90;;;;;;5043857;28;25069;-66
2021/07/12 06:26:49;;;;;;;26.92;22.08;;;20.60;99.90;;;;;;5042815;28;25120;-66
2021/07/12 06:29:14;;;;;;;28.40;22.60;;;20.80;99.90;;;;;;5043073;28;25084;-65
2021/07/12 06:31:41;;;;;;;31.73;22.45;;;20.80;99.90;;;;;;5041325;28;25066;-65
2021/07/12 06:34:06;;;;;;;25.02;21.48;;;20.80;99.90;;;;;;5041935;28;25056;-66
2021/07/12 06:36:32;;;;;;;33.78;22.92;;;20.90;99.90;;;;;;5038983;28;25052;-66
2021/07/12 06:38:58;;;;;;;31.92;22.55;;;20.90;99.90;;;;;;5035915;28;25112;-65
2021/07/12 06:41:23;;;;;;;28.63;23.35;;;20.90;99.90;;;;;;5040018;28;25127;-66
2021/07/12 06:43:51;;;;;;;27.70;22.40;;;21.00;99.90;;;;;;5036727;28;25069;-68
2021/07/12 06:46:17;;;;;;;71.35;25.88;;;21.20;99.90;;;;;;5031736;28;25057;-66
2021/07/12 06:48:43;;;;;;;36.95;23.08;;;21.10;99.90;;;;;;5040332;28;25081;-66
2021/07/12 06:51:09;;;;;;;28.70;22.00;;;21.30;99.90;;;;;;5044097;28;25079;-66
2021/07/12 06:53:35;;;;;;;25.83;20.73;;;21.30;99.90;;;;;;5052228;28;25056;-65
2021/07/12 06:56:01;;;;;;;25.88;20.55;;;21.20;99.90;;;;;;5040722;28;25114;-66
2021/07/12 06:58:27;;;;;;;27.50;19.88;;;21.10;99.90;;;;;;5046776;28;25124;-65
2021/07/12 07:00:52;;;;;;;31.02;19.95;;;21.20;99.90;;;;;;5029914;28;25081;-65
2021/07/12 07:03:18;;;;;;;34.28;20.58;;;21.20;99.90;;;;;;5048331;28;25163;-65
2021/07/12 07:05:43;;;;;;;32.92;21.45;;;21.30;99.90;;;;;;5040278;28;25067;-65
2021/07/12 07:08:09;;;;;;;25.08;19.35;;;21.30;99.90;;;;;;5051936;28;25114;-66
2021/07/12 07:10:34;;;;;;;25.92;19.77;;;21.40;99.90;;;;;;5040534;28;25073;-65
2021/07/12 07:13:00;;;;;;;22.92;18.73;;;21.40;99.90;;;;;;5046377;28;25137;-65
2021/07/12 07:15:25;;;;;;;26.15;20.02;;;21.60;99.90;;;;;;5046426;28;25157;-66
2021/07/12 07:17:52;;;;;;;25.42;19.67;;;21.50;99.90;;;;;;5047212;28;25160;-65
2021/07/12 07:20:18;;;;;;;23.02;17.55;;;21.60;99.90;;;;;;5028943;28;25058;-64
2021/07/12 07:22:43;;;;;;;26.48;18.75;;;21.70;99.90;;;;;;5040379;28;25135;-64
2021/07/12 07:25:10;;;;;;;34.72;20.77;;;21.70;99.90;;;;;;5045642;28;25079;-65
2021/07/12 07:27:36;;;;;;;50.33;20.52;;;21.50;99.90;;;;;;5043393;28;25048;-66
2021/07/12 07:30:02;;;;;;;30.23;20.95;;;21.40;99.90;;;;;;5048688;28;25096;-64
2021/07/12 07:32:28;;;;;;;32.80;19.70;;;21.30;99.90;;;;;;5049911;28;25063;-65
2021/07/12 07:34:53;;;;;;;22.33;18.35;;;21.20;99.90;;;;;;5052822;28;25054;-65
2021/07/12 07:37:19;;;;;;;36.17;19.25;;;21.30;99.90;;;;;;5038237;28;25067;-65
2021/07/12 07:39:44;;;;;;;48.90;20.02;;;21.30;99.90;;;;;;5037754;28;25056;-66
2021/07/12 07:42:10;;;;;;;26.40;19.73;;;21.40;99.90;;;;;;5037978;28;25058;-65
2021/07/12 07:44:35;;;;;;;22.88;17.92;;;21.40;99.90;;;;;;5033131;28;25065;-66
2021/07/12 07:47:01;;;;;;;27.65;17.23;;;21.60;99.90;;;;;;5035602;28;25064;-64
2021/07/12 07:49:28;;;;;;;21.17;16.80;;;21.90;99.90;;;;;;5033918;28;25080;-66
2021/07/12 07:51:54;;;;;;;22.75;17.15;;;22.20;99.90;;;;;;5035735;28;25047;-66
2021/07/12 07:54:19;;;;;;;24.30;17.35;;;22.40;99.90;;;;;;5034752;28;25123;-65
2021/07/12 07:56:45;;;;;;;19.33;16.02;;;22.60;99.90;;;;;;5040526;28;25092;-66
2021/07/12 07:59:10;;;;;;;18.83;14.65;;;22.60;99.90;;;;;;5039069;28;25085;-66
2021/07/12 08:01:36;;;;;;;23.77;16.95;;;22.80;99.90;;;;;;5042048;28;25077;-64
2021/07/12 08:04:02;;;;;;;16.15;13.68;;;22.80;99.90;;;;;;5051122;28;25160;-65
2021/07/12 08:06:28;;;;;;;20.80;15.48;;;22.80;99.90;;;;;;5042268;28;25073;-65
2021/07/12 08:08:53;;;;;;;20.38;13.80;;;22.70;99.90;;;;;;5032322;28;25106;-65
2021/07/12 08:11:19;;;;;;;20.60;13.57;;;22.90;99.90;;;;;;5045601;28;25135;-67
2021/07/12 08:13:45;;;;;;;18.65;12.07;;;23.00;99.90;;;;;;5041946;28;25078;-67
2021/07/12 08:16:11;;;;;;;17.02;12.68;;;23.30;99.90;;;;;;5042891;28;25065;-66
2021/07/12 08:18:36;;;;;;;15.77;12.45;;;23.60;99.90;;;;;;5040887;28;25063;-66
2021/07/12 08:21:03;;;;;;;13.15;10.38;;;23.20;99.90;;;;;;5039076;28;25056;-65
2021/07/12 08:23:29;;;;;;;12.55;11.02;;;23.30;99.90;;;;;;5048506;28;25108;-65
2021/07/12 08:25:55;;;;;;;14.30;12.07;;;23.30;99.90;;;;;;5057745;22;25082;-62
2021/07/12 08:28:23;;;;;;;15.82;11.60;;;22.90;99.90;;;;;;5048992;28;25107;-61
2021/07/12 08:30:49;;;;;;;9.38;7.45;;;22.70;99.90;;;;;;5030964;28;25090;-62
2021/07/12 08:33:15;;;;;;;21.05;8.73;;;22.80;99.90;;;;;;5058595;28;25106;-61
2021/07/12 08:35:40;;;;;;;9.43;7.60;;;22.70;99.90;;;;;;5055597;28;25324;-62
2021/07/12 08:38:07;;;;;;;20.92;9.15;;;23.20;99.90;;;;;;5045734;28;25065;-62
2021/07/12 08:40:33;;;;;;;10.65;8.45;;;23.50;99.90;;;;;;5027908;28;25062;-61
2021/07/12 08:42:59;;;;;;;15.10;8.25;;;23.10;99.90;;;;;;5047143;28;25071;-62
2021/07/12 08:45:27;;;;;;;11.20;8.40;;;23.40;99.90;;;;;;5044143;28;25075;-63
2021/07/12 08:47:54;;;;;;;10.85;7.82;;;23.20;99.90;;;;;;5046987;28;25105;-61
2021/07/12 08:50:22;;;;;;;8.82;6.53;;;23.00;99.90;;;;;;5046166;28;25108;-62
2021/07/12 08:52:49;;;;;;;7.07;5.47;;;23.10;99.90;;;;;;5045302;28;25066;-63
2021/07/12 08:55:16;;;;;;;6.53;5.38;;;23.60;99.90;;;;;;5028202;28;25138;-61
2021/07/12 08:58:05;;;;;;;9.35;6.65;;;24.00;99.90;;;;;;5043791;28;25083;-62
2021/07/12 09:00:41;;;;;;;10.85;7.40;;;24.40;99.90;;;;;;5044522;28;25051;-62
2021/07/12 09:03:33;;;;;;;10.00;7.57;;;24.40;99.90;;;;;;5048695;28;25126;-62
2021/07/12 09:06:15;;;;;;;8.63;7.18;;;24.00;99.90;;;;;;5049075;28;25075;-63
2021/07/12 09:08:45;;;;;;;9.80;7.13;;;23.50;99.90;;;;;;5043954;28;25086;-62
2021/07/12 09:11:17;;;;;;;7.80;6.90;;;23.60;99.90;;;;;;5048463;28;25104;-62
2021/07/12 09:13:47;;;;;;;9.90;7.32;;;23.70;99.90;;;;;;5030980;28;25061;-62
2021/07/12 09:16:25;;;;;;;8.75;7.45;;;24.00;99.90;;;;;;5049337;28;25071;-63
2021/07/12 09:19:01;;;;;;;11.98;7.80;;;24.20;99.90;;;;;;5045018;28;25071;-62
2021/07/12 09:21:31;;;;;;;7.97;6.93;;;24.10;99.90;;;;;;5048016;28;25079;-61
2021/07/12 09:24:36;;;;;;;10.07;6.78;;;23.90;99.90;;;;;;5042354;28;25061;-62
2021/07/12 09:27:07;;;;;;;10.80;7.10;;;24.00;99.90;;;;;;5054657;28;25080;-63
2021/07/12 09:29:41;;;;;;;7.68;6.05;;;24.10;99.90;;;;;;5047311;28;25114;-62
2021/07/12 09:32:10;;;;;;;9.32;6.05;;;23.90;99.90;;;;;;5049068;28;25076;-62
2021/07/12 09:34:37;;;;;;;8.30;5.82;;;24.00;99.90;;;;;;5052833;28;25116;-64
2021/07/12 09:37:04;;;;;;;8.02;6.22;;;24.10;99.90;;;;;;5045994;28;25103;-63
2021/07/12 09:39:39;;;;;;;7.80;5.50;;;23.80;99.90;;;;;;5046430;28;25102;-63
2021/07/12 09:42:07;;;;;;;6.22;5.10;;;24.00;99.90;;;;;;5046127;28;25043;-62
2021/07/12 09:44:36;;;;;;;8.40;6.60;;;24.40;99.90;;;;;;5046496;28;25107;-63
2021/07/12 09:47:07;;;;;;;8.07;7.10;;;24.20;99.90;;;;;;5045417;28;25132;-63
2021/07/12 09:49:32;;;;;;;8.43;6.65;;;24.30;99.90;;;;;;5042817;28;25045;-62
2021/07/12 09:52:01;;;;;;;7.35;5.60;;;24.00;99.90;;;;;;5046064;28;25136;-64
2021/07/12 09:54:33;;;;;;;6.03;4.28;;;24.00;99.90;;;;;;5045394;28;25061;-61
2021/07/12 09:57:09;;;;;;;4.00;3.67;;;24.30;99.90;;;;;;5045748;28;25098;-63
2021/07/12 09:59:36;;;;;;;4.35;2.95;;;24.40;99.90;;;;;;5043608;28;25058;-64
2021/07/12 10:02:03;;;;;;;2.90;2.65;;;24.50;99.90;;;;;;5047817;28;25055;-63
2021/07/12 10:04:29;;;;;;;2.80;2.10;;;24.70;99.90;;;;;;5030767;28;25065;-63
2021/07/12 10:06:55;;;;;;;3.70;3.10;;;24.70;99.90;;;;;;5046938;28;25089;-64
2021/07/12 10:09:22;;;;;;;4.60;3.60;;;24.60;99.90;;;;;;5047643;28;25102;-63
2021/07/12 10:11:54;;;;;;;4.13;3.72;;;24.70;99.90;;;;;;5047057;28;25144;-63
2021/07/12 10:14:21;;;;;;;;;;;24.80;99.90;;;;;;5040703;28;25099;-64
2021/07/12 10:16:47;;;;;;;5.80;3.55;;;25.10;99.90;;;;;;5047408;28;24068;-63
2021/07/12 10:19:13;;;;;;;8.80;4.40;;;24.70;99.90;;;;;;5046090;28;25103;-63
2021/07/12 10:21:52;;;;;;;6.25;3.58;;;24.70;99.90;;;;;;5044623;28;25148;-63
2021/07/12 10:24:27;;;;;;;9.15;2.78;;;24.80;99.90;;;;;;5023942;28;25067;-62
2021/07/12 10:26:54;;;;;;;3.38;2.78;;;24.90;99.90;;;;;;5052273;28;25045;-64
2021/07/12 10:29:30;;;;;;;3.08;2.78;;;25.00;99.90;;;;;;5049096;28;25073;-63
2021/07/12 10:32:00;;;;;;;2.83;2.47;;;25.20;99.90;;;;;;5044752;28;25183;-63
2021/07/12 10:34:27;;;;;;;11.13;2.58;;;25.50;99.90;;;;;;5028436;28;25055;-64
2021/07/12 10:37:05;;;;;;;7.75;2.30;;;25.40;99.90;;;;;;5045730;28;25070;-63
2021/07/12 10:40:07;;;;;;;2.88;2.67;;;25.40;99.90;;;;;;5056856;28;25073;-63
2021/07/12 10:42:42;;;;;;;;;;;25.10;99.90;;;;;;5049160;28;25124;-65
2021/07/12 10:45:14;;;;;;;3.80;3.00;;;25.10;99.90;;;;;;5049905;28;24074;-64
2021/07/12 10:48:08;;;;;;;4.25;3.33;;;25.00;99.90;;;;;;5049794;28;25071;-64
2021/07/12 10:50:41;;;;;;;3.78;3.15;;;25.30;99.90;;;;;;5042932;28;25146;-63
2021/07/12 10:53:16;;;;;;;4.60;3.28;;;25.30;99.90;;;;;;5056701;28;25060;-63
2021/07/12 10:55:57;;;;;;;8.65;3.33;;;25.30;99.90;;;;;;5058156;28;25056;-64
2021/07/12 10:58:26;;;;;;;5.47;2.78;;;25.20;99.90;;;;;;5059182;28;25085;-64
2021/07/12 11:00:54;;;;;;;3.45;3.13;;;25.20;99.90;;;;;;5031963;28;25127;-64
2021/07/12 11:03:39;;;;;;;4.38;3.05;;;25.10;99.90;;;;;;5053443;28;25080;-63
2021/07/12 11:06:08;;;;;;;3.40;3.10;;;25.20;99.90;;;;;;5046583;28;25134;-64
2021/07/12 11:08:48;;;;;;;3.38;3.08;;;25.20;99.90;;;;;;5040025;28;25059;-64
2021/07/12 11:11:39;;;;;;;3.67;3.15;;;25.20;99.90;;;;;;5043704;28;25053;-64
2021/07/12 11:14:06;;;;;;;3.25;2.95;;;25.20;99.90;;;;;;5031394;28;25080;-63
2021/07/12 11:16:47;;;;;;;5.43;3.17;;;25.20;99.90;;;;;;5025496;28;25056;-63
2021/07/12 11:19:18;;;;;;;4.93;3.28;;;25.00;99.90;;;;;;5042533;28;25133;-64
2021/07/12 11:21:43;;;;;;;3.17;2.88;;;24.90;99.90;;;;;;5041332;28;25076;-63
2021/07/12 11:24:17;;;;;;;6.47;2.95;;;25.10;99.90;;;;;;5040857;28;25054;-63
2021/07/12 11:26:46;;;;;;;6.15;3.17;;;25.10;99.90;;;;;;5041903;28;25083;-64
2021/07/12 11:29:13;;;;;;;3.00;2.42;;;25.10;99.90;;;;;;5040651;28;25130;-63
2021/07/12 11:32:07;;;;;;;3.83;2.50;;;25.10;99.90;;;;;;5043447;28;25069;-63
2021/07/12 11:34:43;;;;;;;4.95;2.58;;;25.20;99.90;;;;;;5054389;28;25068;-64
2021/07/12 11:37:15;;;;;;;2.72;2.47;;;25.20;99.90;;;;;;5055292;28;25080;-64
2021/07/12 11:39:50;;;;;;;2.70;2.22;;;25.10;99.90;;;;;;5049077;28;25157;-64
2021/07/12 11:42:33;;;;;;;3.55;2.47;;;25.20;99.90;;;;;;5045810;28;25077;-63
2021/07/12 11:45:09;;;;;;;4.85;2.20;;;25.20;99.90;;;;;;5047086;28;25091;-64
2021/07/12 11:47:42;;;;;;;3.58;2.75;;;25.00;99.90;;;;;;5047499;28;25060;-64
2021/07/12 11:50:16;;;;;;;2.90;2.50;;;25.00;99.90;;;;;;5029220;28;25140;-64
2021/07/12 11:52:45;;;;;;;2.85;2.50;;;25.10;99.90;;;;;;5048060;28;25173;-64
2021/07/12 11:55:23;;;;;;;2.78;2.42;;;25.00;99.90;;;;;;5047507;28;25066;-62
2021/07/12 11:57:51;;;;;;;7.18;2.35;;;25.10;99.90;;;;;;5047951;28;25090;-63
2021/07/12 12:00:24;;;;;;;17.20;3.53;;;25.20;99.90;;;;;;5053324;28;25048;-63
2021/07/12 12:03:14;;;;;;;7.88;3.47;;;25.00;99.90;;;;;;5058758;28;25135;-64
2021/07/12 12:05:41;;;;;;;3.65;1.95;;;25.00;99.90;;;;;;5072317;28;25054;-64
2021/07/12 12:08:08;;;;;;;2.45;2.20;;;25.00;99.90;;;;;;5058908;28;25060;-63
2021/07/12 12:10:39;;;;;;;2.08;1.88;;;25.00;99.90;;;;;;5058365;28;25077;-64
2021/07/12 12:13:19;;;;;;;3.28;2.28;;;24.80;99.90;;;;;;5038634;28;25141;-63
2021/07/12 12:15:47;;;;;;;2.00;1.80;;;24.70;99.90;;;;;;5054765;28;25095;-64
2021/07/12 12:18:15;;;;;;;4.53;2.40;;;25.00;99.90;;;;;;5049129;28;25147;-63
2021/07/12 12:20:45;;;;;;;5.35;1.55;;;24.90;99.90;;;;;;5049374;28;25126;-63
2021/07/12 12:23:18;;;;;;;2.00;1.60;;;24.80;99.90;;;;;;5048670;28;25064;-63
2021/07/12 12:26:03;;;;;;;3.28;2.05;;;25.00;99.90;;;;;;5048427;28;25057;-62
2021/07/12 12:28:32;;;;;;;2.13;1.90;;;25.10;99.90;;;;;;5047373;28;25073;-63
2021/07/12 12:31:16;;;;;;;2.53;2.03;;;25.10;99.90;;;;;;5048637;28;25070;-64
2021/07/12 12:33:45;;;;;;;2.67;1.92;;;25.30;99.90;;;;;;5051121;28;25084;-63
2021/07/12 12:36:13;;;;;;;2.78;1.95;;;25.10;99.90;;;;;;5036765;28;25083;-64
2021/07/12 12:39:09;;;;;;;2.08;1.88;;;25.10;99.90;;;;;;5047933;28;25098;-64
2021/07/12 12:41:37;;;;;;;2.97;1.77;;;25.10;99.90;;;;;;5052557;28;25094;-63
2021/07/12 12:44:06;;;;;;;3.13;2.08;;;25.00;99.90;;;;;;5047101;28;25060;-62
2021/07/12 12:46:53;;;;;;;2.92;1.92;;;24.90;99.90;;;;;;5030878;28;25067;-63